C969 KPHX-KSDL
Flight info
| Callsign | C969 |
|---|---|
| Flight time | 0h 15m |
| Altitude | 7000 |
| Route | PXR |
| Aircraft | C172/L-SFG/C |
Departure
| Time | 2026-05-04 01:19 |
|---|---|
| Airport | Phoenix Sky Harbor International Airport (KPHX) |
Arrival
| Time | 2026-05-04 01:34 |
|---|---|
| Airport | Scottsdale Airport (KSDL) |
| Time | Latitude | Longitude | Altitude | Speed | Heading |
|---|---|---|---|---|---|
| 2026-05-04 01:06 | 33.44226 | -112.02492 | 1119 ft | 0 kts | 215° |
| 2026-05-04 01:13 | 33.44203 | -112.02488 | 1118 ft | 12 kts | 123° |
| 2026-05-04 01:13 | 33.44196 | -112.02362 | 1123 ft | 20 kts | 90° |
| 2026-05-04 01:13 | 33.44194 | -112.02189 | 1123 ft | 21 kts | 90° |
| 2026-05-04 01:14 | 33.44192 | -112.02005 | 1124 ft | 23 kts | 91° |
| 2026-05-04 01:14 | 33.44195 | -112.01804 | 1125 ft | 25 kts | 89° |
| 2026-05-04 01:14 | 33.44195 | -112.01615 | 1125 ft | 22 kts | 90° |
| 2026-05-04 01:14 | 33.44194 | -112.01444 | 1126 ft | 19 kts | 90° |
| 2026-05-04 01:15 | 33.44193 | -112.01297 | 1126 ft | 17 kts | 90° |
| 2026-05-04 01:15 | 33.44192 | -112.01168 | 1126 ft | 15 kts | 91° |
| 2026-05-04 01:15 | 33.44182 | -112.01062 | 1118 ft | 11 kts | 163° |
| 2026-05-04 01:15 | 33.44171 | -112.01062 | 1122 ft | 0 kts | 181° |
| 2026-05-04 01:17 | 33.44148 | -112.01063 | 1126 ft | 11 kts | 181° |
| 2026-05-04 01:17 | 33.44088 | -112.01139 | 1127 ft | 25 kts | 270° |
| 2026-05-04 01:18 | 33.44087 | -112.01524 | 1128 ft | 69 kts | 270° |
| 2026-05-04 01:18 | 33.44116 | -112.02108 | 1317 ft | 71 kts | 278° |
| 2026-05-04 01:18 | 33.44260 | -112.02692 | 1496 ft | 76 kts | 304° |
| 2026-05-04 01:18 | 33.44764 | -112.02949 | 1608 ft | 90 kts | 6° |
| 2026-05-04 01:19 | 33.45392 | -112.02890 | 1783 ft | 92 kts | 4° |
| 2026-05-04 01:19 | 33.46008 | -112.02838 | 2015 ft | 87 kts | 3° |
| 2026-05-04 01:19 | 33.46607 | -112.02771 | 2224 ft | 86 kts | 6° |
| 2026-05-04 01:19 | 33.47208 | -112.02699 | 2406 ft | 89 kts | 4° |
| 2026-05-04 01:20 | 33.47839 | -112.02625 | 2576 ft | 92 kts | 6° |
| 2026-05-04 01:20 | 33.48468 | -112.02537 | 2788 ft | 92 kts | 6° |
| 2026-05-04 01:20 | 33.49113 | -112.02418 | 2945 ft | 98 kts | 8° |
| 2026-05-04 01:20 | 33.49790 | -112.02292 | 3128 ft | 98 kts | 3° |
| 2026-05-04 01:21 | 33.50479 | -112.02339 | 3326 ft | 97 kts | 354° |
| 2026-05-04 01:21 | 33.51090 | -112.02592 | 3518 ft | 97 kts | 322° |
| 2026-05-04 01:21 | 33.51505 | -112.03263 | 3619 ft | 104 kts | 300° |
| 2026-05-04 01:21 | 33.51885 | -112.03993 | 3816 ft | 101 kts | 302° |
| 2026-05-04 01:22 | 33.52239 | -112.04714 | 3983 ft | 102 kts | 291° |
| 2026-05-04 01:22 | 33.52336 | -112.05597 | 4021 ft | 111 kts | 273° |
| 2026-05-04 01:22 | 33.52334 | -112.06532 | 4089 ft | 112 kts | 265° |
| 2026-05-04 01:22 | 33.52220 | -112.07456 | 4149 ft | 114 kts | 256° |
| 2026-05-04 01:23 | 33.51801 | -112.08235 | 4197 ft | 116 kts | 221° |
| 2026-05-04 01:23 | 33.51387 | -112.09008 | 4311 ft | 110 kts | 262° |
| 2026-05-04 01:23 | 33.51521 | -112.09896 | 4391 ft | 110 kts | 299° |
| 2026-05-04 01:23 | 33.52084 | -112.10480 | 4473 ft | 108 kts | 339° |
| 2026-05-04 01:24 | 33.52810 | -112.10438 | 4583 ft | 107 kts | 15° |
| 2026-05-04 01:24 | 33.53579 | -112.10317 | 4502 ft | 117 kts | 3° |
| 2026-05-04 01:24 | 33.54397 | -112.10262 | 4399 ft | 117 kts | 2° |
| 2026-05-04 01:24 | 33.55208 | -112.10219 | 4286 ft | 119 kts | 1° |
| 2026-05-04 01:25 | 33.56038 | -112.10185 | 4151 ft | 118 kts | 2° |
| 2026-05-04 01:25 | 33.56858 | -112.10108 | 3951 ft | 119 kts | 5° |
| 2026-05-04 01:25 | 33.57666 | -112.10001 | 3726 ft | 108 kts | 8° |
| 2026-05-04 01:25 | 33.58316 | -112.09811 | 3594 ft | 87 kts | 9° |
| 2026-05-04 01:26 | 33.58907 | -112.09707 | 3398 ft | 85 kts | 9° |
| 2026-05-04 01:26 | 33.59577 | -112.09559 | 3342 ft | 109 kts | 9° |
| 2026-05-04 01:26 | 33.60352 | -112.09387 | 3408 ft | 116 kts | 9° |
| 2026-05-04 01:26 | 33.61164 | -112.09213 | 3378 ft | 119 kts | 9° |
| 2026-05-04 01:27 | 33.61996 | -112.09039 | 3116 ft | 123 kts | 10° |
| 2026-05-04 01:27 | 33.62802 | -112.08849 | 3017 ft | 114 kts | 11° |
| 2026-05-04 01:27 | 33.63552 | -112.08654 | 2968 ft | 110 kts | 12° |
| 2026-05-04 01:27 | 33.64290 | -112.08457 | 2908 ft | 109 kts | 11° |
| 2026-05-04 01:28 | 33.64961 | -112.08093 | 2884 ft | 107 kts | 47° |
| 2026-05-04 01:28 | 33.65149 | -112.07207 | 2929 ft | 116 kts | 98° |
| 2026-05-04 01:28 | 33.65000 | -112.06297 | 3187 ft | 104 kts | 102° |
| 2026-05-04 01:28 | 33.64853 | -112.05540 | 3445 ft | 92 kts | 105° |
| 2026-05-04 01:29 | 33.64678 | -112.04738 | 3515 ft | 106 kts | 110° |
| 2026-05-04 01:29 | 33.64442 | -112.03874 | 3643 ft | 109 kts | 99° |
| 2026-05-04 01:29 | 33.64326 | -112.02969 | 3771 ft | 111 kts | 94° |
| 2026-05-04 01:29 | 33.64302 | -112.02014 | 3775 ft | 117 kts | 91° |
| 2026-05-04 01:30 | 33.64201 | -112.01067 | 3762 ft | 115 kts | 113° |
| 2026-05-04 01:30 | 33.63692 | -112.00344 | 3630 ft | 115 kts | 140° |
| 2026-05-04 01:30 | 33.63116 | -111.99720 | 3441 ft | 109 kts | 136° |
| 2026-05-04 01:30 | 33.62658 | -111.99028 | 3316 ft | 107 kts | 126° |
| 2026-05-04 01:31 | 33.62258 | -111.98272 | 3279 ft | 107 kts | 111° |
| 2026-05-04 01:31 | 33.62273 | -111.97408 | 3211 ft | 108 kts | 69° |
| 2026-05-04 01:31 | 33.62645 | -111.96589 | 3230 ft | 116 kts | 52° |
| 2026-05-04 01:31 | 33.63169 | -111.95784 | 3158 ft | 124 kts | 51° |
| 2026-05-04 01:32 | 33.63700 | -111.94979 | 3118 ft | 123 kts | 51° |
| 2026-05-04 01:32 | 33.64232 | -111.94188 | 3082 ft | 119 kts | 51° |
| 2026-05-04 01:32 | 33.64713 | -111.93404 | 2924 ft | 112 kts | 55° |
| 2026-05-04 01:32 | 33.65014 | -111.92615 | 2740 ft | 102 kts | 78° |
| 2026-05-04 01:33 | 33.65015 | -111.91754 | 2427 ft | 101 kts | 102° |
| 2026-05-04 01:33 | 33.64802 | -111.91008 | 2295 ft | 84 kts | 115° |
| 2026-05-04 01:33 | 33.64541 | -111.90414 | 2204 ft | 74 kts | 123° |
| 2026-05-04 01:33 | 33.64188 | -111.89974 | 2033 ft | 76 kts | 152° |
| 2026-05-04 01:34 | 33.63680 | -111.89826 | 1804 ft | 77 kts | 181° |
| 2026-05-04 01:34 | 33.63214 | -111.90022 | 1613 ft | 69 kts | 216° |
| 2026-05-04 01:34 | 33.62861 | -111.90397 | 1498 ft | 66 kts | 225° |
| 2026-05-04 01:34 | 33.62622 | -111.90671 | 1484 ft | 25 kts | 224° |
| 2026-05-04 01:35 | 33.62561 | -111.90741 | 1487 ft | 6 kts | 225° |
| 2026-05-04 01:35 | 33.62536 | -111.90787 | 1482 ft | 7 kts | 249° |
| 2026-05-04 01:35 | 33.62530 | -111.90849 | 1487 ft | 8 kts | 267° |
| 2026-05-04 01:35 | 33.62510 | -111.90909 | 1478 ft | 8 kts | 232° |
| 2026-05-04 01:36 | 33.62470 | -111.90961 | 1480 ft | 12 kts | 221° |
| 2026-05-04 01:36 | 33.62389 | -111.91055 | 1476 ft | 19 kts | 224° |
| 2026-05-04 01:36 | 33.62323 | -111.91130 | 1474 ft | 13 kts | 223° |
| 2026-05-04 01:36 | 33.62259 | -111.91203 | 1467 ft | 13 kts | 223° |
| 2026-05-04 01:37 | 33.62196 | -111.91276 | 1467 ft | 12 kts | 225° |
| 2026-05-04 01:37 | 33.62133 | -111.91350 | 1465 ft | 13 kts | 224° |
| 2026-05-04 01:37 | 33.62060 | -111.91435 | 1463 ft | 15 kts | 224° |
| 2026-05-04 01:37 | 33.62025 | -111.91510 | 1462 ft | 10 kts | 356° |
| 2026-05-04 01:38 | 33.62083 | -111.91477 | 1462 ft | 12 kts | 334° |
| 2026-05-04 01:38 | 33.62115 | -111.91483 | 1461 ft | 2 kts | 333° |
| 2026-05-04 01:38 | 33.62123 | -111.91490 | 1461 ft | 0 kts | 318° |
| 2026-05-04 01:38 | 33.62127 | -111.91495 | 1461 ft | 0 kts | 318° |